Time;durP1;ratioP1;P1;durP2;ratioP2;P2;SDS_P1;SDS_P2;PMS_P1;PMS_P2;Temp;Humidity;BMP_temperature;BMP_pressure;BME280_temperature;BME280_humidity;BME280_pressure;Samples;Min_cycle;Max_cycle;Signal;HPM_P1;HPM_P2
2023/02/22 00:00:43;;;;;;;42.75;16.13;;;8.20;99.90;;;-148.53;100.00;63986.66;5006833;28;19988;-77
2023/02/22 00:03:23;;;;;;;46.15;18.02;;;8.00;99.90;;;-148.53;100.00;63986.66;4988817;28;20053;-77
2023/02/22 00:05:58;;;;;;;44.13;17.27;;;7.90;99.90;;;-148.53;100.00;63986.66;5002472;28;20038;-76
2023/02/22 00:08:29;;;;;;;44.63;16.20;;;7.80;99.90;;;-148.53;100.00;63986.66;5005464;28;20030;-77
2023/02/22 00:10:59;;;;;;;48.90;17.52;;;7.80;99.90;;;-148.53;100.00;63986.66;5008051;28;20064;-78
2023/02/22 00:13:29;;;;;;;43.15;17.40;;;7.80;99.90;;;-148.53;100.00;63986.66;5000430;28;20040;-78
2023/02/22 00:15:59;;;;;;;47.22;17.75;;;7.70;99.90;;;-148.53;100.00;63986.66;5000391;28;20030;-77
2023/02/22 00:18:27;;;;;;;42.70;16.80;;;7.80;99.90;;;-148.53;100.00;63986.66;5009675;28;20346;-77
2023/02/22 00:20:55;;;;;;;48.63;18.27;;;7.80;99.90;;;-148.53;100.00;63986.66;4999899;28;20518;-78
2023/02/22 00:23:21;;;;;;;47.92;18.20;;;7.90;99.90;;;-148.53;100.00;63986.66;4998710;28;20035;-77
2023/02/22 00:25:49;;;;;;;46.20;18.40;;;7.90;99.90;;;-148.53;100.00;63986.66;5007806;28;20038;-77
2023/02/22 00:28:17;;;;;;;46.08;18.20;;;7.90;99.90;;;-148.53;100.00;63986.66;5009230;28;20058;-77
2023/02/22 00:30:44;;;;;;;45.17;16.98;;;7.90;99.90;;;-148.53;100.00;63986.66;5015060;28;20042;-77
2023/02/22 00:33:14;;;;;;;49.53;17.75;;;7.90;99.90;;;-148.53;100.00;63986.66;4997608;28;20038;-77
2023/02/22 00:35:44;;;;;;;49.83;17.95;;;7.90;99.90;;;-148.53;100.00;63986.66;5012389;28;20397;-77
2023/02/22 00:38:12;;;;;;;50.88;19.60;;;7.90;99.90;;;-148.53;100.00;63986.66;4995060;28;20033;-77
2023/02/22 00:40:39;;;;;;;44.33;18.70;;;7.90;99.90;;;-148.53;100.00;63986.66;5006447;28;20089;-76
2023/02/22 00:43:05;;;;;;;45.00;17.60;;;7.80;99.90;;;-148.53;100.00;63986.66;5011512;28;20038;-77
2023/02/22 00:45:34;;;;;;;44.80;17.48;;;7.80;99.90;;;-148.53;100.00;63986.66;5008796;28;20100;-78
2023/02/22 00:48:02;;;;;;;48.63;17.85;;;7.80;99.90;;;-148.53;100.00;63986.66;5008735;28;20046;-77
2023/02/22 00:50:29;;;;;;;44.65;17.08;;;7.70;99.90;;;-148.53;100.00;63986.66;5000565;28;20049;-77
2023/02/22 00:52:57;;;;;;;46.40;18.30;;;7.70;99.90;;;-148.53;100.00;63986.66;4988527;28;20058;-77
2023/02/22 00:55:31;;;;;;;51.13;18.65;;;7.60;99.90;;;-148.53;100.00;63986.66;5016698;28;20069;-77
2023/02/22 00:57:58;;;;;;;49.80;17.58;;;7.50;99.90;;;-148.53;100.00;63986.66;5010424;28;20117;-77
2023/02/22 01:00:29;;;;;;;54.42;18.20;;;7.50;99.90;;;-148.53;100.00;63986.66;5010978;28;20140;-77
2023/02/22 01:02:56;;;;;;;47.03;18.40;;;7.50;99.90;;;-148.53;100.00;63986.66;5003694;28;20061;-77
2023/02/22 01:05:26;;;;;;;56.53;19.20;;;7.60;99.90;;;-148.53;100.00;63986.66;5007193;28;20041;-77
2023/02/22 01:07:54;;;;;;;47.75;17.60;;;7.60;99.90;;;-148.53;100.00;63986.66;5005137;28;20022;-77
2023/02/22 01:10:23;;;;;;;49.08;18.33;;;7.60;99.90;;;-148.53;100.00;63986.66;4986568;28;20776;-76
2023/02/22 01:12:50;;;;;;;48.85;18.92;;;7.50;99.90;;;-148.53;100.00;63986.66;5009487;28;20044;-77
2023/02/22 01:15:21;;;;;;;47.58;17.50;;;7.50;99.90;;;-148.53;100.00;63986.66;5003498;28;20034;-76
2023/02/22 01:17:49;;;;;;;48.53;18.33;;;7.40;99.90;;;-148.53;100.00;63986.66;5013510;28;20030;-77
2023/02/22 01:20:16;;;;;;;48.38;18.05;;;7.30;99.90;;;-148.53;100.00;63986.66;4994104;28;20034;-76
2023/02/22 01:22:46;;;;;;;52.63;17.48;;;7.20;99.90;;;-148.53;100.00;63986.66;4998357;28;20107;-77
2023/02/22 01:25:26;;;;;;;50.08;18.58;;;7.10;99.90;;;-148.53;100.00;63986.66;5008737;28;20041;-77
2023/02/22 01:27:54;;;;;;;43.72;16.55;;;6.90;99.90;;;-148.53;100.00;63986.66;4990751;28;20044;-77
2023/02/22 01:30:32;;;;;;;45.30;15.80;;;6.70;99.90;;;-148.53;100.00;63986.66;5007832;28;20069;-77
2023/02/22 01:32:59;;;;;;;45.63;17.00;;;6.40;99.90;;;-148.53;100.00;63986.66;5020696;28;20038;-77
2023/02/22 01:35:32;;;;;;;42.63;15.85;;;6.10;99.90;;;-148.53;100.00;63986.66;5010013;28;20037;-77
2023/02/22 01:37:58;;;;;;;41.22;15.13;;;5.90;99.90;;;-148.53;100.00;63986.66;5015251;28;20062;-77
2023/02/22 01:40:37;;;;;;;42.22;15.55;;;5.60;99.90;;;-148.53;100.00;63986.66;5011340;28;20093;-77
2023/02/22 01:43:25;;;;;;;41.20;16.45;;;5.40;99.90;;;-148.53;100.00;63986.66;5006242;28;20407;-77
2023/02/22 01:46:17;;;;;;;40.72;15.77;;;5.30;99.90;;;-148.53;100.00;63986.66;5007093;28;20097;-77
2023/02/22 01:49:00;;;;;;;49.60;17.08;;;5.10;99.90;;;-148.53;100.00;63986.66;5017911;28;20041;-77
2023/02/22 01:51:36;;;;;;;43.17;15.88;;;4.90;99.90;;;-148.53;100.00;63986.66;5000867;28;20037;-77
2023/02/22 01:54:12;;;;;;;39.85;14.82;;;4.90;99.90;;;-148.53;100.00;63986.66;5005571;28;20112;-77
2023/02/22 01:57:10;;;;;;;46.75;16.30;;;4.80;99.90;;;-148.53;100.00;63986.66;4995811;28;20066;-77
2023/02/22 01:59:43;;;;;;;38.63;14.55;;;4.70;99.90;;;-148.53;100.00;63986.66;5001096;28;20038;-77
2023/02/22 02:02:10;;;;;;;39.45;15.55;;;4.60;99.90;;;-148.53;100.00;63986.66;5008410;28;20438;-77
2023/02/22 02:04:36;;;;;;;41.47;14.85;;;4.40;99.90;;;-148.53;100.00;63986.66;4999569;28;20423;-77
2023/02/22 02:07:07;;;;;;;47.08;15.93;;;4.40;99.90;;;-148.53;100.00;63986.66;5001536;28;20125;-77
2023/02/22 02:09:56;;;;;;;45.88;16.55;;;4.30;99.90;;;-148.53;100.00;63986.66;4999712;28;20038;-77
2023/02/22 02:12:23;;;;;;;43.72;14.95;;;4.30;99.90;;;-148.53;100.00;63986.66;5008873;28;20057;-77
2023/02/22 02:14:50;;;;;;;;;;;4.20;99.90;;;-148.53;100.00;63986.66;5005071;28;20106;-77
2023/02/22 02:17:20;;;;;;;47.70;15.38;;;4.30;99.90;;;-148.53;100.00;63986.66;5006301;28;19944;-77
2023/02/22 02:20:10;;;;;;;41.67;14.90;;;4.20;99.90;;;-148.53;100.00;63986.66;5009453;28;20109;-77
2023/02/22 02:22:50;;;;;;;40.25;15.63;;;4.20;99.90;;;-148.53;100.00;63986.66;5012294;28;20057;-77
2023/02/22 02:26:05;;;;;;;41.45;14.80;;;4.20;99.90;;;-148.53;100.00;63986.66;4992809;28;20030;-77
2023/02/22 02:29:34;;;;;;;43.00;14.13;;;4.10;99.90;;;-148.53;100.00;63986.66;4992724;28;20031;-77
2023/02/22 02:32:34;;;;;;;41.03;15.15;;;4.00;99.90;;;-148.53;100.00;63986.66;5006250;28;20041;-77
2023/02/22 02:35:14;;;;;;;;;;;4.00;99.90;;;-148.53;100.00;63986.66;5016944;28;20042;-77
2023/02/22 02:38:32;;;;;;;47.05;15.40;;;4.20;99.90;;;-148.53;100.00;63986.66;5010355;28;20015;-77
2023/02/22 02:41:25;;;;;;;56.72;17.23;;;4.40;99.90;;;-148.53;100.00;63986.66;5003082;28;20481;-77
2023/02/22 02:44:35;;;;;;;61.60;18.42;;;4.70;99.90;;;-148.53;100.00;63986.66;5000965;28;20381;-78
2023/02/22 02:47:36;;;;;;;67.40;19.30;;;4.80;99.90;;;-148.53;100.00;63986.66;5008722;28;20568;-76
2023/02/22 02:50:15;;;;;;;52.80;15.38;;;4.80;99.90;;;-148.53;100.00;63986.66;4999161;28;20094;-77
2023/02/22 02:52:45;;;;;;;49.08;15.52;;;4.60;99.90;;;-148.53;100.00;63986.66;5013638;28;20054;-79
2023/02/22 02:55:12;;;;;;;46.45;13.98;;;4.40;99.90;;;-148.53;100.00;63986.66;4981577;28;20038;-77
2023/02/22 02:57:41;;;;;;;32.67;10.65;;;4.20;99.90;;;-148.53;100.00;63986.66;5005342;28;20126;-76
2023/02/22 03:00:21;;;;;;;62.75;13.25;;;4.00;99.90;;;-148.53;100.00;63986.66;5023859;28;20508;-77
2023/02/22 03:03:43;;;;;;;28.00;11.02;;;3.90;99.90;;;-148.53;100.00;63986.66;4998506;28;20093;-77
2023/02/22 03:06:59;;;;;;;24.90;9.82;;;3.80;99.90;;;-148.53;100.00;63986.66;4994035;28;20144;-77
2023/02/22 03:09:53;;;;;;;21.20;8.77;;;3.60;99.90;;;-148.53;100.00;63986.66;4992241;28;20113;-76
2023/02/22 03:12:47;;;;;;;19.40;8.38;;;3.50;99.90;;;-148.53;100.00;63986.66;5013481;28;20508;-77
2023/02/22 03:15:55;;;;;;;19.17;8.18;;;3.50;99.90;;;-148.53;100.00;63986.66;4996348;28;20396;-77
2023/02/22 03:19:03;;;;;;;21.45;8.50;;;3.40;99.90;;;-148.53;100.00;63986.66;4992004;28;20482;-77
2023/02/22 03:21:43;;;;;;;21.55;9.32;;;3.40;99.90;;;-148.53;100.00;63986.66;4990184;28;20099;-77
2023/02/22 03:24:20;;;;;;;17.73;8.98;;;3.40;99.90;;;-148.53;100.00;63986.66;4993387;28;20036;-77
2023/02/22 03:27:10;;;;;;;22.77;10.00;;;3.40;99.90;;;-148.53;100.00;63986.66;5003473;28;20072;-77
2023/02/22 03:29:44;;;;;;;20.08;8.10;;;3.40;99.90;;;-148.53;100.00;63986.66;4995421;28;20303;-77
2023/02/22 03:32:22;;;;;;;15.07;7.13;;;3.30;99.90;;;-148.53;100.00;63986.66;5002507;28;20041;-77
2023/02/22 03:34:57;;;;;;;19.80;7.60;;;3.20;99.90;;;-148.53;100.00;63986.66;5004276;28;20125;-77
2023/02/22 03:37:33;;;;;;;25.15;9.23;;;3.20;99.90;;;-148.53;100.00;63986.66;5000209;28;20030;-77
2023/02/22 03:40:12;;;;;;;18.73;7.80;;;3.10;99.90;;;-148.53;100.00;63986.66;4997546;28;20045;-77
2023/02/22 03:42:53;;;;;;;20.73;7.05;;;3.00;99.90;;;-148.53;100.00;63986.66;5011874;28;20030;-77
2023/02/22 03:45:24;;;;;;;;;;;3.00;99.90;;;-148.53;100.00;63986.66;4997348;28;20033;-77
2023/02/22 03:48:09;;;;;;;23.15;8.32;;;3.00;99.90;;;-148.53;100.00;63986.66;5003877;28;20404;-77
2023/02/22 03:50:36;;;;;;;25.75;9.13;;;3.00;99.90;;;-148.53;100.00;63986.66;4997896;28;20037;-77
2023/02/22 03:53:06;;;;;;;56.88;12.55;;;2.90;99.90;;;-148.53;100.00;63986.66;5005792;28;20113;-77
2023/02/22 03:55:34;;;;;;;63.63;14.05;;;3.10;99.90;;;-148.53;100.00;63986.66;4993314;28;20132;-76
2023/02/22 03:58:10;;;;;;;55.58;14.43;;;3.40;99.90;;;-148.53;100.00;63986.66;4995680;28;20096;-76
2023/02/22 04:00:37;;;;;;;65.15;15.45;;;3.60;99.90;;;-148.53;100.00;63986.66;5006270;28;20375;-77
2023/02/22 04:03:04;;;;;;;50.85;13.98;;;3.60;99.90;;;-148.53;100.00;63986.66;5004537;28;20397;-77
2023/02/22 04:05:29;;;;;;;58.10;14.25;;;3.60;99.90;;;-148.53;100.00;63986.66;5008692;28;20061;-77
2023/02/22 04:07:57;;;;;;;53.53;14.88;;;3.40;99.90;;;-148.53;100.00;63986.66;5007670;28;20547;-77
2023/02/22 04:10:25;;;;;;;42.25;12.88;;;3.30;99.90;;;-148.53;100.00;63986.66;5018709;28;20038;-77
2023/02/22 04:12:50;;;;;;;47.17;13.27;;;3.20;99.90;;;-148.53;100.00;63986.66;4995094;28;20712;-76
2023/02/22 04:15:22;;;;;;;42.72;13.50;;;3.10;99.90;;;-148.53;100.00;63986.66;5007871;28;20081;-76
2023/02/22 04:17:51;;;;;;;37.47;12.00;;;3.10;99.90;;;-148.53;100.00;63986.66;5008555;28;20456;-78
2023/02/22 04:20:18;;;;;;;42.55;13.70;;;3.10;99.90;;;-148.53;100.00;63986.66;5006387;28;20105;-77
2023/02/22 04:23:04;;;;;;;40.70;13.23;;;3.10;99.90;;;-148.53;100.00;63986.66;5010360;28;20060;-77
2023/02/22 04:25:30;;;;;;;32.47;11.38;;;3.00;99.90;;;-148.53;100.00;63986.66;4998767;28;20066;-80
2023/02/22 04:27:56;;;;;;;41.22;11.88;;;2.90;99.90;;;-148.53;100.00;63986.66;5001316;28;20022;-78
2023/02/22 04:30:34;;;;;;;36.30;11.93;;;2.90;99.90;;;-148.53;100.00;63986.66;4995822;28;20050;-79
2023/02/22 04:33:02;;;;;;;38.28;12.02;;;2.80;99.90;;;-148.53;100.00;63986.66;4989551;28;20042;-80
2023/02/22 04:35:27;;;;;;;37.75;11.27;;;2.70;99.90;;;-148.53;100.00;63986.66;5011563;28;20394;-81
2023/02/22 04:37:53;;;;;;;33.25;11.95;;;2.70;99.90;;;-148.53;100.00;63986.66;4993238;28;20041;-79
2023/02/22 04:40:19;;;;;;;35.65;11.55;;;2.70;99.90;;;-148.53;100.00;63986.66;5008650;28;20082;-78
2023/02/22 04:42:46;;;;;;;36.90;12.18;;;2.60;99.90;;;-148.53;100.00;63986.66;5006635;28;20505;-81
2023/02/22 04:45:12;;;;;;;38.60;11.60;;;2.60;99.90;;;-148.53;100.00;63986.66;5000230;28;20026;-79
2023/02/22 04:47:38;;;;;;;45.08;12.60;;;2.60;99.90;;;-148.53;100.00;63986.66;5003423;28;20057;-77
2023/02/22 04:50:08;;;;;;;45.97;13.02;;;2.60;99.90;;;-148.53;100.00;63986.66;4988460;28;20579;-78
2023/02/22 04:52:34;;;;;;;48.85;13.50;;;2.70;99.90;;;-148.53;100.00;63986.66;5009262;28;20117;-78
2023/02/22 04:55:00;;;;;;;44.20;12.60;;;2.80;99.90;;;-148.53;100.00;63986.66;5002887;28;20117;-79
2023/02/22 04:57:26;;;;;;;42.08;11.52;;;2.80;99.90;;;-148.53;100.00;63986.66;5004098;28;20066;-78
2023/02/22 04:59:52;;;;;;;60.53;15.63;;;2.90;99.90;;;-148.53;100.00;63986.66;4993864;28;20430;-78
2023/02/22 05:02:19;;;;;;;68.22;16.98;;;3.00;99.90;;;-148.53;100.00;63986.66;5006741;28;20053;-78
2023/02/22 05:04:44;;;;;;;58.60;15.73;;;3.30;99.90;;;-148.53;100.00;63986.66;5012416;28;20076;-78
2023/02/22 05:07:11;;;;;;;53.47;14.23;;;3.50;99.90;;;-148.53;100.00;63986.66;5003286;28;20061;-78
2023/02/22 05:09:36;;;;;;;60.53;15.27;;;3.60;99.90;;;-148.53;100.00;63986.66;5007334;28;20084;-78
2023/02/22 05:12:02;;;;;;;75.38;17.13;;;3.70;99.90;;;-148.53;100.00;63986.66;5003347;28;20062;-78
2023/02/22 05:14:28;;;;;;;79.97;16.15;;;3.80;99.90;;;-148.53;100.00;63986.66;5004577;28;20068;-78
2023/02/22 05:16:56;;;;;;;63.22;15.70;;;3.90;99.90;;;-148.53;100.00;63986.66;5008067;28;20030;-78
2023/02/22 05:19:23;;;;;;;71.97;15.00;;;3.90;99.90;;;-148.53;100.00;63986.66;5004754;28;20093;-78
2023/02/22 05:21:49;;;;;;;79.25;18.23;;;4.00;99.90;;;-148.53;100.00;63986.66;5018140;28;20428;-78
2023/02/22 05:24:15;;;;;;;91.35;18.05;;;4.10;99.90;;;-148.53;100.00;63986.66;5008066;28;20033;-78
2023/02/22 05:26:43;;;;;;;76.25;19.25;;;4.20;99.90;;;-148.53;100.00;63986.66;4993878;28;20049;-78
2023/02/22 05:29:09;;;;;;;;;;;4.30;99.90;;;-148.53;100.00;63986.66;5001528;28;20397;-78
2023/02/22 05:31:34;;;;;;;89.43;20.40;;;4.40;99.90;;;-148.53;100.00;63986.66;5011039;28;19971;-78
2023/02/22 05:34:00;;;;;;;93.65;20.13;;;4.50;99.90;;;-148.53;100.00;63986.66;5006758;28;20044;-78
2023/02/22 05:36:28;;;;;;;97.38;21.20;;;4.60;99.90;;;-148.53;100.00;63986.66;4996921;28;20050;-78
2023/02/22 05:38:57;;;;;;;103.90;22.75;;;4.60;99.90;;;-148.53;100.00;63986.66;5007838;28;20060;-78
2023/02/22 05:41:23;;;;;;;100.85;22.38;;;4.60;99.90;;;-148.53;100.00;63986.66;5006923;28;20045;-78
2023/02/22 05:43:49;;;;;;;116.40;25.63;;;4.70;99.90;;;-148.53;100.00;63986.66;5007251;28;20030;-77
2023/02/22 05:46:14;;;;;;;105.45;23.42;;;4.60;99.90;;;-148.53;100.00;63986.66;5025872;28;20056;-78
2023/02/22 05:48:40;;;;;;;112.55;24.65;;;4.60;99.90;;;-148.53;100.00;63986.66;5005761;28;20401;-78
2023/02/22 05:51:08;;;;;;;109.50;24.65;;;4.60;99.90;;;-148.53;100.00;63986.66;4993941;28;20461;-78
2023/02/22 05:53:34;;;;;;;113.65;24.40;;;4.50;99.90;;;-148.53;100.00;63986.66;4999055;28;20049;-78
2023/02/22 05:56:00;;;;;;;100.95;22.70;;;4.50;99.90;;;-148.53;100.00;63986.66;4999532;28;20088;-78
2023/02/22 05:58:26;;;;;;;115.45;25.40;;;4.50;99.90;;;-148.53;100.00;63986.66;5005006;28;20054;-78
2023/02/22 06:00:52;;;;;;;117.60;24.67;;;4.50;99.90;;;-148.53;100.00;63986.66;4995140;28;20093;-78
2023/02/22 06:03:18;;;;;;;110.78;23.52;;;4.50;99.90;;;-148.53;100.00;63986.66;5007631;28;20034;-78
2023/02/22 06:05:43;;;;;;;117.00;23.17;;;4.60;99.90;;;-148.53;100.00;63986.66;4994485;28;20517;-78
2023/02/22 06:08:09;;;;;;;121.10;24.85;;;4.60;99.90;;;-148.53;100.00;63986.66;4997132;28;20112;-78
2023/02/22 06:10:35;;;;;;;113.68;24.92;;;4.60;99.90;;;-148.53;100.00;63986.66;5003680;28;20046;-78
2023/02/22 06:13:03;;;;;;;113.65;22.85;;;4.60;99.90;;;-148.53;100.00;63986.66;5005709;28;20477;-79
2023/02/22 06:15:29;;;;;;;128.13;24.38;;;4.60;99.90;;;-148.53;100.00;63986.66;4995022;28;20044;-77
2023/02/22 06:17:57;;;;;;;107.85;24.80;;;4.60;99.90;;;-148.53;100.00;63986.66;5010289;28;20532;-79
2023/02/22 06:20:26;;;;;;;113.97;23.38;;;4.70;99.90;;;-148.53;100.00;63986.66;5010590;28;20042;-79
2023/02/22 06:22:55;;;;;;;121.93;24.38;;;4.80;99.90;;;-148.53;100.00;63986.66;5005032;28;20042;-79
2023/02/22 06:25:30;;;;;;;116.90;24.40;;;4.80;99.90;;;-148.53;100.00;63986.66;5001193;28;20050;-78
2023/02/22 06:27:56;;;;;;;104.90;22.90;;;4.80;99.90;;;-148.53;100.00;63986.66;5002041;28;20048;-78
2023/02/22 06:30:25;;;;;;;113.57;23.05;;;4.80;99.90;;;-148.53;100.00;63986.66;5008937;28;20113;-79
2023/02/22 06:32:51;;;;;;;101.47;23.20;;;4.80;99.90;;;-148.53;100.00;63986.66;5009855;28;20109;-79
2023/02/22 06:35:17;;;;;;;95.95;21.95;;;4.80;99.90;;;-148.53;100.00;63986.66;5006867;28;20038;-79
2023/02/22 06:37:43;;;;;;;117.10;23.38;;;4.80;99.90;;;-148.53;100.00;63986.66;5002220;28;20042;-80
2023/02/22 06:40:10;;;;;;;103.72;25.05;;;4.80;99.90;;;-148.53;100.00;63986.66;5010730;28;20040;-77
2023/02/22 06:42:37;;;;;;;100.93;24.15;;;4.70;99.90;;;-148.53;100.00;63986.66;5015788;28;20698;-77
2023/02/22 06:45:03;;;;;;;91.32;22.55;;;4.70;99.90;;;-148.53;100.00;63986.66;4997890;28;20092;-78
2023/02/22 06:47:29;;;;;;;103.20;23.20;;;4.80;99.90;;;-148.53;100.00;63986.66;4993593;28;20402;-78
2023/02/22 06:49:59;;;;;;;103.32;22.67;;;4.90;99.90;;;-148.53;100.00;63986.66;5005040;28;20041;-79
2023/02/22 06:52:25;;;;;;;93.20;22.13;;;5.00;99.90;;;-148.53;100.00;63986.66;5004679;28;20087;-78
2023/02/22 06:54:51;;;;;;;88.60;22.35;;;5.10;99.90;;;-148.53;100.00;63986.66;4992939;28;20041;-78
2023/02/22 06:57:17;;;;;;;96.97;21.77;;;5.20;99.90;;;-148.53;100.00;63986.66;5000100;28;20039;-77
2023/02/22 06:59:43;;;;;;;82.95;19.52;;;5.20;99.90;;;-148.53;100.00;63986.66;5008948;28;20127;-78
2023/02/22 07:02:13;;;;;;;80.28;20.15;;;5.20;99.90;;;-148.53;100.00;63986.66;5006167;28;20100;-78
2023/02/22 07:04:39;;;;;;;84.47;21.10;;;5.20;99.90;;;-148.53;100.00;63986.66;5000602;28;20034;-78
2023/02/22 07:07:05;;;;;;;80.55;20.20;;;5.30;99.90;;;-148.53;100.00;63986.66;5009546;28;20042;-77
2023/02/22 07:09:31;;;;;;;83.63;22.10;;;5.30;99.90;;;-148.53;100.00;63986.66;5008364;28;20044;-77
2023/02/22 07:11:56;;;;;;;90.57;21.90;;;5.50;99.90;;;-148.53;100.00;63986.66;5008368;28;20118;-77
2023/02/22 07:14:22;;;;;;;93.03;21.05;;;5.50;99.90;;;-148.53;100.00;63986.66;5008168;28;20030;-79
2023/02/22 07:16:48;;;;;;;89.20;21.35;;;5.60;99.90;;;-148.53;100.00;63986.66;5008968;28;20034;-79
2023/02/22 07:19:14;;;;;;;77.70;21.00;;;5.60;99.90;;;-148.53;100.00;63986.66;5009599;28;20317;-78
2023/02/22 07:21:39;;;;;;;85.53;20.98;;;5.70;99.90;;;-148.53;100.00;63986.66;5003446;28;20042;-78
2023/02/22 07:24:05;;;;;;;96.78;21.77;;;5.80;99.90;;;-148.53;100.00;63986.66;5010525;28;20029;-77
2023/02/22 07:26:39;;;;;;;83.68;23.00;;;5.80;99.90;;;-148.53;100.00;63986.66;4997058;28;20037;-78
2023/02/22 07:29:05;;;;;;;86.22;21.63;;;5.90;99.90;;;-148.53;100.00;63986.66;5001755;28;20391;-78
2023/02/22 07:31:38;;;;;;;78.63;21.77;;;6.10;99.90;;;-148.53;100.00;63986.66;5005073;28;20034;-78
2023/02/22 07:34:03;;;;;;;85.65;21.63;;;6.10;99.90;;;-148.53;100.00;63986.66;4988795;28;20096;-78
2023/02/22 07:36:29;;;;;;;85.47;21.67;;;6.20;99.90;;;-148.53;100.00;63986.66;5006508;28;20038;-78
2023/02/22 07:38:55;;;;;;;73.78;21.42;;;6.30;99.90;;;-148.53;100.00;63986.66;4998592;28;20038;-78
2023/02/22 07:41:21;;;;;;;70.53;21.42;;;6.40;99.90;;;-148.53;100.00;63986.66;4999624;28;20037;-78
2023/02/22 07:43:47;;;;;;;76.13;20.35;;;6.50;99.90;;;-148.53;100.00;63986.66;5002350;28;20038;-78
2023/02/22 07:46:13;;;;;;;72.72;20.30;;;6.50;99.90;;;-148.53;100.00;63986.66;5003628;28;20045;-78
2023/02/22 07:48:39;;;;;;;71.97;19.75;;;6.60;99.90;;;-148.53;100.00;63986.66;5002110;28;20693;-78
2023/02/22 07:51:05;;;;;;;70.68;20.77;;;6.60;99.90;;;-148.53;100.00;63986.66;5004625;28;20034;-78
2023/02/22 07:53:32;;;;;;;67.22;20.67;;;6.60;99.90;;;-148.53;100.00;63986.66;5004136;28;20031;-78
2023/02/22 07:56:04;;;;;;;66.67;20.77;;;6.70;99.90;;;-148.53;100.00;63986.66;4995541;28;20034;-78
2023/02/22 07:58:31;;;;;;;62.17;19.70;;;6.80;99.90;;;-148.53;100.00;63986.66;5008169;28;20030;-78
2023/02/22 08:01:00;;;;;;;72.88;20.33;;;6.90;99.90;;;-148.53;100.00;63986.66;5003151;28;20545;-78
2023/02/22 08:03:29;;;;;;;59.53;19.77;;;7.00;99.90;;;-148.53;100.00;63986.66;5004572;28;20030;-78
2023/02/22 08:05:59;;;;;;;52.00;17.98;;;7.20;99.90;;;-148.53;100.00;63986.66;4997310;28;20113;-78
2023/02/22 08:08:25;;;;;;;49.67;17.20;;;7.30;99.90;;;-148.53;100.00;63986.66;5009041;28;20386;-78
2023/02/22 08:10:51;;;;;;;48.63;16.83;;;7.40;99.90;;;-148.53;100.00;63986.66;5009986;28;20103;-78
2023/02/22 08:13:19;;;;;;;42.00;16.23;;;7.60;99.90;;;-148.53;100.00;63986.66;5003386;28;20041;-78
2023/02/22 08:15:46;;;;;;;37.70;14.32;;;7.80;99.90;;;-148.53;100.00;63986.66;5004546;28;20366;-78
2023/02/22 08:18:15;;;;;;;33.28;13.65;;;8.00;99.90;;;-148.53;100.00;63986.66;4997313;28;20044;-78
2023/02/22 08:20:44;;;;;;;34.90;13.18;;;8.20;99.90;;;-148.53;100.00;63986.66;5017423;28;20641;-77
2023/02/22 08:23:13;;;;;;;26.55;11.90;;;8.40;99.90;;;-148.53;100.00;63986.66;5000399;28;20057;-77
2023/02/22 08:25:40;;;;;;;28.38;13.10;;;8.60;99.90;;;-148.53;100.00;63986.66;5003441;28;20030;-78
2023/02/22 08:28:14;;;;;;;27.05;12.07;;;8.80;99.90;;;-148.53;100.00;63986.66;5002639;28;20033;-78
2023/02/22 08:30:44;;;;;;;26.38;12.40;;;9.00;99.90;;;-148.53;100.00;63986.66;4995610;28;20486;-79
2023/02/22 08:33:17;;;;;;;25.58;12.32;;;9.10;99.90;;;-148.53;100.00;63986.66;5004655;28;20034;-78
2023/02/22 08:35:45;;;;;;;25.48;11.15;;;9.20;99.90;;;-148.53;100.00;63986.66;5007948;28;20382;-77
2023/02/22 08:38:23;;;;;;;25.45;11.80;;;9.20;99.90;;;-148.53;100.00;63986.66;4998818;28;20037;-79
2023/02/22 08:40:49;;;;;;;27.10;11.68;;;9.30;99.90;;;-148.53;100.00;63986.66;5001615;28;20035;-78
2023/02/22 08:43:18;;;;;;;26.63;11.90;;;9.30;99.90;;;-148.53;100.00;63986.66;4998764;28;20168;-78
2023/02/22 08:45:45;;;;;;;28.77;12.23;;;9.50;99.90;;;-148.53;100.00;63986.66;5003319;28;20049;-78
2023/02/22 08:48:12;;;;;;;22.33;10.88;;;9.60;99.90;;;-148.53;100.00;63986.66;5003948;28;20061;-78
2023/02/22 08:50:40;;;;;;;24.10;11.80;;;9.70;99.90;;;-148.53;100.00;63986.66;5003927;28;20038;-79
2023/02/22 08:53:08;;;;;;;21.75;10.77;;;9.70;99.90;;;-148.53;100.00;63986.66;5001644;28;20042;-78
2023/02/22 08:55:37;;;;;;;24.15;11.43;;;9.80;99.90;;;-148.53;100.00;63986.66;5004637;28;20050;-78
2023/02/22 08:58:08;;;;;;;23.92;11.23;;;10.00;99.90;;;-148.53;100.00;63986.66;5014063;28;20466;-79
2023/02/22 09:00:35;;;;;;;26.80;11.40;;;10.20;99.90;;;-148.53;100.00;63986.66;4997512;28;20038;-78
2023/02/22 09:03:13;;;;;;;23.65;10.65;;;10.40;99.90;;;-148.53;100.00;63986.66;5002244;28;20042;-79
2023/02/22 09:05:40;;;;;;;22.67;10.75;;;10.60;99.90;;;-148.53;100.00;63986.66;4995519;28;20486;-79
2023/02/22 09:08:06;;;;;;;25.25;10.80;;;10.80;99.90;;;-148.53;100.00;63986.66;4995402;28;20129;-80
2023/02/22 09:10:34;;;;;;;20.23;10.75;;;11.00;99.90;;;-148.53;100.00;63986.66;5012025;28;20042;-80
2023/02/22 09:13:01;;;;;;;;;;;11.20;99.90;;;-148.53;100.00;63986.66;5005002;28;20045;-78
2023/02/22 09:15:28;;;;;;;20.80;10.38;;;11.10;99.90;;;-148.53;100.00;63986.66;5003090;28;19979;-79
2023/02/22 09:17:54;;;;;;;22.85;11.68;;;11.10;99.90;;;-148.53;100.00;63986.66;5004334;28;20042;-79
2023/02/22 09:20:23;;;;;;;22.27;10.60;;;11.00;99.90;;;-148.53;100.00;63986.66;5003282;28;20076;-80
2023/02/22 09:22:49;;;;;;;23.15;11.20;;;11.00;99.90;;;-148.53;100.00;63986.66;5000414;28;20125;-79
2023/02/22 09:25:19;;;;;;;25.42;11.30;;;10.90;99.90;;;-148.53;100.00;63986.66;5007645;28;20048;-77
2023/02/22 09:27:48;;;;;;;26.27;11.60;;;10.90;99.90;;;-148.53;100.00;63986.66;5001102;28;20105;-79
2023/02/22 09:30:30;;;;;;;22.48;11.50;;;10.90;99.90;;;-148.53;100.00;63986.66;5000094;28;20093;-79
2023/02/22 09:33:04;;;;;;;23.00;11.23;;;10.90;99.90;;;-148.53;100.00;63986.66;5001670;28;20512;-79
2023/02/22 09:35:34;;;;;;;26.77;12.27;;;10.90;99.90;;;-148.53;100.00;63986.66;5002834;28;20486;-79
2023/02/22 09:38:03;;;;;;;25.83;12.45;;;11.00;99.90;;;-148.53;100.00;63986.66;5003267;28;20080;-80
2023/02/22 09:40:35;;;;;;;27.13;12.30;;;11.20;99.90;;;-148.53;100.00;63986.66;5003399;28;20034;-79
2023/02/22 09:43:50;;;;;;;24.38;12.20;;;11.30;99.90;;;-148.53;100.00;63986.66;5003673;28;20041;-79
2023/02/22 09:46:33;;;;;;;21.77;11.95;;;11.50;99.90;;;-148.53;100.00;63986.66;4999132;28;20452;-79
2023/02/22 09:49:12;;;;;;;26.10;12.90;;;11.70;99.90;;;-148.53;100.00;63986.66;5005066;28;20373;-80
2023/02/22 09:51:54;;;;;;;;;;;11.90;99.90;;;-148.53;100.00;63986.66;5009937;28;20057;-80
2023/02/22 09:54:43;;;;;;;23.67;12.13;;;12.20;99.90;;;-148.53;100.00;63986.66;5003558;28;20358;-80
2023/02/22 09:57:21;;;;;;;22.48;12.00;;;12.20;99.90;;;-148.53;100.00;63986.66;5007886;28;20454;-80
2023/02/22 10:00:12;;;;;;;26.15;13.07;;;12.30;99.90;;;-148.53;100.00;63986.66;5006536;28;20042;-80
2023/02/22 10:03:19;;;;;;;25.77;12.20;;;12.50;99.90;;;-148.53;100.00;63986.66;5016462;28;20065;-80
2023/02/22 10:05:59;;;;;;;22.25;12.25;;;12.70;99.90;;;-148.53;100.00;63986.66;5000015;28;20052;-79
2023/02/22 10:08:32;;;;;;;23.58;12.43;;;12.60;99.90;;;-148.53;100.00;63986.66;5003572;28;20038;-80
2023/02/22 10:11:16;;;;;;;24.67;12.75;;;12.80;99.90;;;-148.53;100.00;63986.66;5003763;28;20401;-80
2023/02/22 10:14:22;;;;;;;22.13;12.40;;;12.80;99.90;;;-148.53;100.00;63986.66;5004028;28;20045;-81